Time;durP1;ratioP1;P1;durP2;ratioP2;P2;SDS_P1;SDS_P2;PMS_P1;PMS_P2;Temp;Humidity;BMP_temperature;BMP_pressure;BME280_temperature;BME280_humidity;BME280_pressure;Samples;Min_cycle;Max_cycle;Signal;HPM_P1;HPM_P2
2023/03/11 00:00:12;;;;;;;;;;;7.30;58.00;;;5.81;60.75;98437.34;12263444;19;19925;-84
2023/03/11 00:04:13;;;;;;;;;;;7.30;58.00;;;5.76;60.71;98442.84;12259255;19;20315;-84
2023/03/11 00:08:18;;;;;;;;;;;7.40;58.00;;;5.75;60.74;98444.63;12262436;19;20322;-84
2023/03/11 00:12:19;;;;;;;;;;;7.20;58.00;;;5.53;60.98;98418.59;12258624;19;19953;-84
2023/03/11 00:16:21;;;;;;;;;;;7.20;57.90;;;5.75;60.82;98462.75;12258617;19;19919;-84
2023/03/11 00:20:28;;;;;;;;;;;7.20;57.90;;;5.43;60.88;98428.00;12259195;19;19978;-83
2023/03/11 00:24:30;;;;;;;;;;;7.20;57.90;;;5.67;60.96;98488.38;12254364;19;19947;-84
2023/03/11 00:28:32;;;;;;;;;;;7.20;57.90;;;5.70;60.93;98519.22;12256872;19;19926;-84
2023/03/11 00:32:33;;;;;;;;;;;7.40;57.90;;;5.73;60.87;98544.06;12256203;19;19911;-84
2023/03/11 00:36:36;;;;;;;;;;;7.20;57.70;;;5.65;60.73;98548.97;12257543;19;19930;-84
2023/03/11 00:40:41;;;;;;;;;;;7.10;57.70;;;5.70;60.67;98565.00;12251171;19;23014;-84
2023/03/11 00:44:43;;;;;;;;;;;7.10;57.60;;;5.67;60.84;98581.59;12252813;19;19919;-83
2023/03/11 00:48:44;;;;;;;;;;;7.10;57.60;;;5.51;60.53;98570.63;12255082;19;19910;-83
2023/03/11 00:52:47;;;;;;;;;;;7.10;57.60;;;5.52;60.79;98596.41;12250315;19;19926;-85
2023/03/11 01:01:41;;;;;;;;;;;7.00;57.40;;;5.46;60.69;98617.53;12199167;19;20261;-83
2023/03/11 01:05:42;;;;;;;;;;;6.90;57.30;;;5.38;60.82;98619.00;12255913;19;19910;-83
2023/03/11 01:09:44;;;;;;;;;;;6.90;57.20;;;5.38;60.60;98642.28;12259723;19;19919;-84
2023/03/11 01:13:46;;;;;;;;;;;6.90;57.30;;;5.31;60.64;98647.84;12259243;19;19927;-84
2023/03/11 01:17:49;;;;;;;;;;;6.80;57.20;;;4.97;60.61;98604.47;12264877;19;19919;-84
2023/03/11 01:21:50;;;;;;;;;;;6.80;57.20;;;5.19;60.56;98669.38;12262150;19;19928;-84
2023/03/11 01:25:52;;;;;;;;;;;6.70;57.20;;;5.13;60.63;98685.31;12265959;19;19929;-84
2023/03/11 01:29:53;;;;;;;;;;;6.60;57.20;;;5.09;60.68;98689.03;12264368;19;19915;-84
2023/03/11 01:33:55;;;;;;;;;;;6.70;57.20;;;4.98;60.74;98692.31;12266899;19;19911;-84
2023/03/11 01:37:57;;;;;;;;;;;6.50;57.20;;;4.84;60.88;98694.97;12264553;19;19922;-83
2023/03/11 01:41:59;;;;;;;;;;;6.70;57.30;;;4.70;60.91;98693.28;12249083;19;19935;-83
2023/03/11 01:46:10;;;;;;;;;;;6.40;57.20;;;4.32;60.74;98652.59;12251483;19;19915;-83
2023/03/11 01:50:12;;;;;;;;;;;6.40;57.30;;;4.79;60.72;98740.97;12249342;19;19918;-83
2023/03/11 01:54:42;;;;;;;;;;;6.40;57.30;;;4.72;60.93;98758.63;12252233;19;19939;-83
2023/03/11 01:58:48;;;;;;;;;;;6.30;57.30;;;4.70;60.83;98772.56;12251203;19;19918;-82
2023/03/11 02:02:52;;;;;;;;;;;6.20;57.50;;;4.63;60.97;98782.47;12248189;19;19911;-82
2023/03/11 02:06:56;;;;;;;;;;;6.10;57.50;;;4.63;60.82;98803.16;12248353;19;19936;-82
2023/03/11 02:10:58;;;;;;;;;;;6.40;57.60;;;4.52;60.67;98792.66;12248221;19;19925;-83
2023/03/11 02:15:02;;;;;;;;;;;6.40;57.60;;;4.50;60.72;98818.56;12249670;19;19923;-82
2023/03/11 02:19:36;;;;;;;;;;;6.10;57.50;;;4.49;60.78;98831.59;12249687;19;19918;-82
2023/03/11 02:24:03;;;;;;;;;;;6.10;57.50;;;4.50;60.72;98859.91;12247355;19;20252;-82
2023/03/11 02:28:08;;;;;;;;;;;6.10;57.60;;;4.44;60.81;98868.06;12249281;19;19922;-82
2023/03/11 02:32:11;;;;;;;;;;;6.00;57.50;;;4.29;60.80;98867.19;12240853;19;19922;-82
2023/03/11 02:36:41;;;;;;;;;;;6.00;57.80;;;4.27;61.06;98883.75;12249420;19;20020;-82
2023/03/11 02:40:59;;;;;;;;;;;6.00;57.50;;;4.42;61.01;98924.97;12245674;19;19982;-82
2023/03/11 02:45:09;;;;;;;;;;;6.00;57.60;;;4.37;60.85;98944.25;12243141;19;20313;-82
2023/03/11 02:49:11;;;;;;;;;;;5.90;57.50;;;4.40;60.79;98969.91;12247575;19;19927;-82
2023/03/11 02:53:13;;;;;;;;;;;5.90;57.60;;;4.37;60.85;98962.34;12247699;19;19931;-82
2023/03/11 02:57:16;;;;;;;;;;;5.90;57.70;;;4.25;61.18;98963.91;12248484;19;19910;-82
2023/03/11 03:01:18;;;;;;;;;;;5.90;57.90;;;4.29;61.00;99004.13;12245473;19;19929;-81
2023/03/11 03:05:21;;;;;;;;;;;5.90;57.80;;;4.24;61.11;99018.22;12245620;19;19923;-81
2023/03/11 03:09:24;;;;;;;;;;;5.80;57.70;;;4.16;61.06;99023.84;12246909;19;19927;-82
2023/03/11 03:13:28;;;;;;;;;;;5.80;57.90;;;4.19;60.88;99050.34;12247461;19;19914;-82
2023/03/11 03:17:31;;;;;;;;;;;5.80;58.00;;;3.87;60.95;99018.56;12255650;19;19927;-82
2023/03/11 03:21:33;;;;;;;;;;;6.00;57.90;;;4.04;61.28;99051.19;12258073;19;19928;-81
2023/03/11 03:25:35;;;;;;;;;;;5.80;57.80;;;4.16;60.94;99091.03;12261147;19;20017;-82
2023/03/11 03:29:41;;;;;;;;;;;5.80;57.90;;;4.08;61.17;99091.44;12260382;19;20403;-81
2023/03/11 03:33:43;;;;;;;;;;;5.70;57.90;;;4.13;60.96;99111.81;12259120;19;19922;-82
2023/03/11 03:37:45;;;;;;;;;;;5.70;58.00;;;4.17;61.16;99132.25;12257386;19;19944;-81
2023/03/11 03:41:47;;;;;;;;;;;5.80;57.90;;;4.21;61.19;99161.31;12254992;19;19919;-81
2023/03/11 03:45:58;;;;;;;;;;;5.80;57.90;;;4.25;61.21;99180.94;12259389;19;20416;-81
2023/03/11 03:50:07;;;;;;;;;;;5.80;57.90;;;4.12;61.07;99177.34;12257118;19;19925;-82
2023/03/11 03:54:09;;;;;;;;;;;5.80;57.80;;;4.14;61.22;99191.00;12261745;19;19907;-82
2023/03/11 03:58:11;;;;;;;;;;;5.80;57.70;;;4.20;61.26;99214.75;12257456;19;19926;-82
2023/03/11 04:02:13;;;;;;;;;;;5.80;57.90;;;4.12;61.09;99218.66;12254774;19;20369;-81
2023/03/11 04:06:21;;;;;;;;;;;5.90;57.80;;;4.21;61.19;99249.16;12259670;19;19923;-81
2023/03/11 04:10:27;;;;;;;;;;;5.80;57.70;;;3.95;61.06;99238.47;12257919;19;19930;-82
2023/03/11 04:14:30;;;;;;;;;;;5.70;57.60;;;4.16;61.14;99279.59;12258900;19;19939;-82
2023/03/11 04:18:35;;;;;;;;;;;5.70;57.80;;;4.12;61.04;99280.66;12259179;19;19926;-82
2023/03/11 04:22:37;;;;;;;;;;;5.90;57.90;;;4.15;61.37;99299.41;12255926;19;19935;-82
2023/03/11 04:26:40;;;;;;;;;;;5.80;57.90;;;4.03;61.19;99291.47;12256525;19;19918;-82
2023/03/11 04:30:46;;;;;;;;;;;5.80;57.80;;;4.09;61.15;99312.66;12253771;19;19919;-82
2023/03/11 04:34:48;;;;;;;;;;;5.80;57.80;;;4.04;61.37;99324.97;12258547;19;19920;-83
2023/03/11 04:38:50;;;;;;;;;;;5.70;57.90;;;4.08;61.33;99354.91;12256489;19;19940;-83
2023/03/11 04:42:53;;;;;;;;;;;5.70;57.90;;;4.05;61.22;99356.78;12257704;19;19922;-82
2023/03/11 04:46:56;;;;;;;;;;;5.70;57.70;;;4.06;61.32;99361.06;12260974;19;19930;-82
2023/03/11 04:50:58;;;;;;;;;;;5.70;57.70;;;4.03;61.13;99374.13;12257275;19;19979;-82
2023/03/11 04:55:01;;;;;;;;;;;5.70;57.80;;;3.96;61.20;99373.59;12259955;19;20153;-82
2023/03/11 04:59:05;;;;;;;;;;;5.70;57.80;;;3.57;61.23;99319.59;12256977;19;19934;-82
2023/03/11 05:03:09;;;;;;;;;;;5.70;57.90;;;3.80;61.28;99365.75;12254475;19;19926;-82
2023/03/11 05:07:11;;;;;;;;;;;5.70;57.80;;;3.97;61.36;99417.41;12254924;19;19911;-83
2023/03/11 05:11:14;;;;;;;;;;;5.70;57.80;;;3.97;61.36;99421.75;12255619;19;19930;-82
2023/03/11 05:15:18;;;;;;;;;;;5.60;57.90;;;4.05;61.47;99442.03;12255612;19;19925;-83
2023/03/11 05:19:30;;;;;;;;;;;5.60;57.80;;;3.96;61.41;99444.13;12253930;19;19918;-83
2023/03/11 05:23:32;;;;;;;;;;;5.80;58.00;;;3.89;61.10;99445.38;12253631;19;19918;-83
2023/03/11 05:27:34;;;;;;;;;;;5.70;58.10;;;3.94;61.41;99464.06;12253717;19;19986;-83
2023/03/11 05:31:37;;;;;;;;;;;5.70;58.10;;;4.05;61.33;99494.53;12250581;19;20253;-82
2023/03/11 05:35:39;;;;;;;;;;;5.70;58.00;;;3.93;61.32;99492.53;12251951;19;19911;-83
2023/03/11 05:39:40;;;;;;;;;;;6.00;58.10;;;3.71;61.38;99466.91;12250118;19;19981;-84
2023/03/11 05:43:43;;;;;;;;;;;5.70;58.30;;;4.02;61.27;99523.06;12252437;19;19915;-83
2023/03/11 05:47:45;;;;;;;;;;;5.70;58.10;;;3.76;61.38;99486.41;12251031;19;19949;-83
2023/03/11 05:51:49;;;;;;;;;;;5.70;58.30;;;4.04;61.33;99541.09;12249359;19;19972;-82
2023/03/11 05:55:56;;;;;;;;;;;5.80;58.30;;;4.06;61.35;99567.69;12252124;19;20337;-83
2023/03/11 05:59:58;;;;;;;;;;;5.70;58.10;;;3.96;61.35;99560.38;12251658;19;19925;-83
2023/03/11 06:04:00;;;;;;;;;;;5.70;58.00;;;4.08;61.52;99586.53;12249296;19;19911;-83
2023/03/11 06:08:03;;;;;;;;;;;5.70;58.00;;;3.99;61.46;99588.63;12251726;19;19918;-83
2023/03/11 06:12:05;;;;;;;;;;;5.70;57.90;;;3.96;61.35;99586.19;12248983;19;19922;-83
2023/03/11 06:16:22;;;;;;;;;;;5.70;57.90;;;4.07;61.22;99614.09;12249097;19;20325;-83
2023/03/11 06:20:23;;;;;;;;;;;5.70;57.90;;;4.10;61.45;99624.28;12248348;19;19919;-82
2023/03/11 06:24:26;;;;;;;;;;;5.70;57.90;;;3.91;61.65;99603.63;12246809;19;19922;-83
2023/03/11 06:28:28;;;;;;;;;;;5.70;57.90;;;4.13;61.38;99642.25;12248310;19;19931;-83
2023/03/11 06:32:30;;;;;;;;;;;5.70;57.90;;;4.05;61.40;99633.16;12247350;19;20613;-83
2023/03/11 06:36:32;;;;;;;;;;;5.80;57.90;;;4.07;61.45;99639.09;12247578;19;19931;-82
2023/03/11 06:40:36;;;;;;;;;;;5.80;57.90;;;4.17;61.34;99661.03;12254070;19;19919;-83
2023/03/11 06:44:38;;;;;;;;;;;5.80;57.80;;;4.24;61.35;99682.25;12256803;19;19915;-83
2023/03/11 06:48:40;;;;;;;;;;;5.80;57.90;;;4.25;61.48;99695.09;12251654;19;20258;-83
2023/03/11 06:52:43;;;;;;;;;;;5.80;57.80;;;4.27;61.51;99719.13;12248494;19;20246;-82
2023/03/11 06:56:44;;;;;;;;;;;5.90;57.80;;;4.24;61.50;99713.25;12261055;19;19929;-82
2023/03/11 07:00:47;;;;;;;;;;;5.90;57.90;;;4.24;61.17;99723.59;12254329;19;19983;-82
2023/03/11 07:04:48;;;;;;;;;;;5.90;57.80;;;4.15;61.37;99730.00;12253600;19;19923;-84
2023/03/11 07:08:51;;;;;;;;;;;5.90;57.90;;;4.19;61.40;99765.16;12259137;19;20130;-83
2023/03/11 07:12:53;;;;;;;;;;;6.00;57.80;;;4.13;61.36;99763.69;12252847;19;19915;-83
2023/03/11 07:16:55;;;;;;;;;;;5.80;57.70;;;4.12;61.55;99771.50;12256427;19;19911;-83
2023/03/11 07:21:14;;;;;;;;;;;5.80;57.60;;;4.15;61.39;99781.69;12253472;19;19931;-82
2023/03/11 07:25:16;;;;;;;;;;;5.80;57.60;;;4.16;61.42;99793.72;12252866;19;19970;-85
2023/03/11 07:29:19;;;;;;;;;;;5.80;57.70;;;3.99;61.30;99772.00;12260441;19;19930;-83
2023/03/11 07:33:22;;;;;;;;;;;6.00;57.80;;;4.13;61.30;99806.75;12260738;19;20490;-82
2023/03/11 07:37:24;;;;;;;;;;;5.70;57.60;;;4.15;61.38;99823.84;12264535;19;19923;-83
2023/03/11 07:41:26;;;;;;;;;;;5.70;57.70;;;4.01;61.40;99807.28;12259119;19;19967;-83
2023/03/11 07:45:28;;;;;;;;;;;5.70;57.70;;;4.07;61.36;99841.44;12256848;19;19982;-82
2023/03/11 07:49:30;;;;;;;;;;;6.00;58.00;;;4.06;61.36;99852.69;12259701;19;20252;-82
2023/03/11 07:53:32;;;;;;;;;;;5.70;57.80;;;3.79;61.44;99823.69;12259883;19;19915;-86
2023/03/11 07:57:34;;;;;;;;;;;5.70;57.70;;;3.68;61.33;99818.13;12261767;19;20242;-82
2023/03/11 08:01:39;;;;;;;;;;;5.70;57.90;;;3.83;61.56;99853.63;12256408;19;19923;-83
2023/03/11 08:05:40;;;;;;;;;;;5.70;57.80;;;4.07;61.51;99903.44;12250424;19;19919;-83
2023/03/11 08:09:42;;;;;;;;;;;5.70;57.80;;;4.11;61.35;99905.00;12260086;19;19948;-83
2023/03/11 08:13:44;;;;;;;;;;;5.70;57.90;;;4.09;61.39;99906.78;12257591;19;19929;-84
2023/03/11 08:17:46;;;;;;;;;;;5.70;57.80;;;4.10;61.71;99926.53;12258416;19;19915;-83
2023/03/11 08:21:47;;;;;;;;;;;6.00;58.10;;;4.28;61.79;99944.78;12254674;19;20310;-82
2023/03/11 08:25:49;;;;;;;;;;;5.80;58.10;;;4.22;61.74;99938.97;12259498;19;19978;-84
2023/03/11 08:29:51;;;;;;;;;;;5.90;58.00;;;4.15;61.83;99926.38;12258735;19;20278;-84
2023/03/11 08:33:56;;;;;;;;;;;5.90;58.00;;;4.27;61.53;99945.72;12255361;19;20349;-84
2023/03/11 08:37:58;;;;;;;;;;;6.00;58.00;;;4.39;61.55;99971.03;12257687;19;19922;-84
2023/03/11 08:42:00;;;;;;;;;;;6.30;58.00;;;4.36;61.68;99966.81;12254319;19;19911;-84
2023/03/11 08:46:05;;;;;;;;;;;6.10;57.90;;;4.15;61.69;99941.88;12256951;19;19931;-84
2023/03/11 08:50:13;;;;;;;;;;;6.10;57.70;;;4.41;61.62;99982.16;12252395;19;20340;-85
2023/03/11 08:54:14;;;;;;;;;;;6.20;57.70;;;4.35;61.78;99970.31;12257162;19;19922;-83
2023/03/11 08:58:17;;;;;;;;;;;6.10;57.70;;;4.62;61.69;100008.84;12255231;19;19923;-84
2023/03/11 09:02:18;;;;;;;;;;;6.20;57.80;;;4.40;61.87;99977.84;12247989;19;19918;-84
2023/03/11 09:06:20;;;;;;;;;;;6.30;57.80;;;4.67;61.76;100022.41;12254343;19;19925;-85
2023/03/11 09:10:22;;;;;;;;;;;6.40;57.90;;;4.74;61.62;100030.75;12250295;19;19915;-85
2023/03/11 09:14:24;;;;;;;;;;;6.50;57.80;;;4.83;61.80;100049.31;12254326;19;19986;-85
2023/03/11 09:18:28;;;;;;;;;;;6.50;57.60;;;4.49;61.70;99998.16;12251853;19;19974;-84
2023/03/11 09:22:29;;;;;;;;;;;6.60;57.40;;;4.69;61.75;100046.44;12252281;19;19919;-86
2023/03/11 09:26:30;;;;;;;;;;;6.50;57.20;;;4.51;61.49;100026.53;12254900;19;20344;-85
2023/03/11 09:30:32;;;;;;;;;;;6.80;57.30;;;4.69;61.58;100061.13;12250947;19;20269;-85
2023/03/11 09:34:33;;;;;;;;;;;6.40;57.10;;;4.68;61.61;100057.72;12253375;19;19919;-85
2023/03/11 09:38:35;;;;;;;;;;;6.40;57.20;;;4.74;61.75;100067.78;12252290;19;19986;-85
2023/03/11 09:43:00;;;;;;;;;;;6.50;57.40;;;4.92;61.98;100078.28;12248462;19;19927;-86
2023/03/11 09:47:43;;;;;;;;;;;6.50;57.60;;;5.04;61.78;100091.53;12247236;19;19926;-85
2023/03/11 09:51:48;;;;;;;;;;;6.70;57.70;;;5.06;61.63;100091.47;12246439;19;19930;-86
2023/03/11 09:55:53;;;;;;;;;;;6.80;57.50;;;4.93;61.73;100074.78;12249489;19;20245;-86
2023/03/11 09:59:54;;;;;;;;;;;6.80;57.40;;;5.15;62.08;100106.59;12257297;19;19921;-85
2023/03/11 10:04:14;;;;;;;;;;;6.90;57.40;;;5.23;61.92;100114.88;12254018;19;20321;-85
2023/03/11 10:08:42;;;;;;;;;;;7.00;57.40;;;5.22;61.79;100110.63;12249564;19;19915;-85
2023/03/11 10:13:07;;;;;;;;;;;7.00;57.30;;;5.28;61.61;100130.22;12246071;19;19915;-88
2023/03/11 10:17:36;;;;;;;;;;;7.00;57.00;;;5.32;61.80;100145.56;12248482;19;20719;-85
2023/03/11 10:22:07;;;;;;;;;;;7.00;56.90;;;5.31;61.59;100156.78;12249215;19;19919;-85
2023/03/11 10:26:21;;;;;;;;;;;7.00;56.90;;;5.31;61.64;100163.72;12244924;19;20226;-85
2023/03/11 10:30:38;;;;;;;;;;;7.00;57.00;;;5.38;61.96;100177.28;12246583;19;19922;-86
2023/03/11 10:34:51;;;;;;;;;;;7.00;57.20;;;5.48;61.93;100168.19;12249013;19;19936;-85
2023/03/11 10:38:54;;;;;;;;;;;7.10;57.30;;;5.53;61.66;100186.94;12250388;19;20010;-85
2023/03/11 10:42:58;;;;;;;;;;;7.20;57.10;;;5.50;61.70;100174.97;12245654;19;19915;-85
2023/03/11 10:47:01;;;;;;;;;;;7.20;57.10;;;5.62;61.68;100188.31;12247716;19;20009;-85
2023/03/11 10:51:13;;;;;;;;;;;7.20;57.10;;;5.61;61.71;100197.81;12246250;19;19918;-85
2023/03/11 10:55:18;;;;;;;;;;;7.30;56.90;;;5.42;61.77;100166.69;12258308;19;20585;-86
2023/03/11 10:59:27;;;;;;;;;;;7.30;56.70;;;5.50;61.54;100179.31;12254039;19;19922;-87
2023/03/11 11:03:29;;;;;;;;;;;7.30;56.70;;;5.48;61.73;100186.31;12248426;19;19978;-85
2023/03/11 11:07:38;;;;;;;;;;;7.30;56.70;;;5.60;61.49;100210.84;12258436;19;19923;-85
2023/03/11 11:11:39;;;;;;;;;;;7.30;56.70;;;5.53;61.46;100200.72;12253749;19;20372;-85
2023/03/11 11:15:56;;;;;;;;;;;7.30;56.70;;;5.50;61.64;100197.44;12246607;19;19934;-85
2023/03/11 11:19:59;;;;;;;;;;;7.20;56.60;;;5.48;61.66;100200.13;12247650;19;19914;-85
2023/03/11 11:24:09;;;;;;;;;;;7.20;56.60;;;5.51;61.44;100206.91;12244282;19;19923;-85
2023/03/11 11:28:19;;;;;;;;;;;7.20;56.50;;;5.50;61.49;100220.75;12270973;19;19962;-85
2023/03/11 11:32:21;;;;;;;;;;;7.10;56.50;;;5.48;61.62;100232.91;12266070;19;19915;-85
2023/03/11 11:36:31;;;;;;;;;;;7.10;56.60;;;5.28;61.44;100200.94;12257788;19;19913;-85
2023/03/11 11:40:32;;;;;;;;;;;7.10;56.60;;;5.35;61.27;100208.44;12258125;19;19943;-86
2023/03/11 11:44:34;;;;;;;;;;;7.10;56.50;;;5.35;61.65;100213.63;12259526;19;19915;-85
2023/03/11 11:48:48;;;;;;;;;;;7.40;56.70;;;5.14;61.72;100174.81;12265996;19;19922;-85
2023/03/11 11:52:59;;;;;;;;;;;7.10;56.60;;;5.54;61.45;100219.72;12252325;19;20015;-85
2023/03/11 11:57:10;;;;;;;;;;;7.20;56.70;;;5.50;61.47;100220.75;12256997;19;20325;-85
2023/03/11 12:01:22;;;;;;;;;;;7.20;56.70;;;5.62;61.66;100230.59;12254495;19;19918;-86
2023/03/11 12:05:33;;;;;;;;;;;7.30;56.60;;;5.70;61.54;100243.22;12257137;19;19918;-86
2023/03/11 12:09:45;;;;;;;;;;;7.30;56.60;;;5.70;61.49;100244.06;12260779;19;20432;-85
2023/03/11 12:13:46;;;;;;;;;;;7.30;56.50;;;5.70;61.57;100253.59;12259353;19;19923;-86
2023/03/11 12:17:51;;;;;;;;;;;7.40;56.50;;;5.69;61.38;100257.91;12257871;19;20102;-86
2023/03/11 12:22:22;;;;;;;;;;;7.30;56.30;;;5.73;61.52;100254.28;12249711;19;19915;-86
2023/03/11 12:26:27;;;;;;;;;;;7.40;56.40;;;5.60;61.54;100242.78;12253481;19;19915;-87
2023/03/11 12:30:31;;;;;;;;;;;7.30;56.20;;;5.68;61.29;100255.41;12251961;19;20336;-86
2023/03/11 12:34:34;;;;;;;;;;;7.30;56.30;;;5.69;61.40;100263.09;12253319;19;19926;-89
2023/03/11 12:38:38;;;;;;;;;;;7.30;56.10;;;5.62;61.46;100261.69;12254267;19;19915;-87
2023/03/11 12:42:40;;;;;;;;;;;7.30;56.00;;;5.63;61.26;100268.53;12249618;19;19930;-89
2023/03/11 12:46:57;;;;;;;;;;;7.30;56.10;;;5.61;61.42;100272.94;12254457;19;19919;-86
2023/03/11 12:50:58;;;;;;;;;;;7.20;56.00;;;5.50;61.40;100260.44;12250299;19;19987;-85
2023/03/11 12:55:00;;;;;;;;;;;7.20;56.10;;;5.61;61.50;100282.47;12251141;19;19922;-86
2023/03/11 12:59:20;;;;;;;;;;;7.20;56.00;;;5.62;61.43;100286.75;12252698;19;19919;-86
2023/03/11 13:03:44;;;;;;;;;;;7.40;56.20;;;5.65;61.36;100291.81;12252176;19;19943;-85
2023/03/11 13:07:45;;;;;;;;;;;7.20;56.20;;;5.64;61.17;100301.28;12251769;19;20388;-85
2023/03/11 13:11:47;;;;;;;;;;;7.20;55.90;;;5.52;61.11;100286.28;12249538;19;20322;-85
2023/03/11 13:15:49;;;;;;;;;;;7.20;56.00;;;5.62;61.36;100302.28;12251186;19;19915;-85
2023/03/11 13:19:52;;;;;;;;;;;7.20;56.00;;;5.65;61.36;100308.19;12246920;19;19994;-85
2023/03/11 13:24:20;;;;;;;;;;;7.30;56.00;;;5.67;61.45;100310.69;12252015;19;19915;-85
2023/03/11 13:28:30;;;;;;;;;;;7.30;56.10;;;5.68;61.21;100315.81;12256672;19;19986;-85
2023/03/11 13:32:41;;;;;;;;;;;7.30;56.00;;;5.65;61.41;100312.53;12251598;19;19911;-85
2023/03/11 13:37:05;;;;;;;;;;;7.30;56.10;;;5.73;61.14;100326.00;12251569;19;20356;-85
2023/03/11 13:41:21;;;;;;;;;;;7.30;56.10;;;5.70;61.11;100333.91;12252390;19;19918;-85
2023/03/11 13:45:34;;;;;;;;;;;7.30;55.90;;;5.74;61.39;100345.81;12248306;19;19991;-85
2023/03/11 13:50:01;;;;;;;;;;;7.30;55.90;;;5.80;61.19;100349.88;12254722;19;19923;-84
2023/03/11 13:54:09;;;;;;;;;;;7.40;55.80;;;5.79;61.22;100361.16;12248679;19;19946;-85
2023/03/11 13:58:27;;;;;;;;;;;7.40;55.90;;;5.69;61.17;100337.38;12251094;19;20019;-85
2023/03/11 14:02:29;;;;;;;;;;;7.40;55.90;;;5.81;61.18;100362.78;12251182;19;19911;-85
2023/03/11 14:06:31;;;;;;;;;;;7.50;56.00;;;5.82;61.22;100361.03;12251385;19;19914;-85
2023/03/11 14:10:32;;;;;;;;;;;7.50;55.90;;;5.61;61.08;100322.16;12249652;19;19923;-85
2023/03/11 14:14:46;;;;;;;;;;;7.50;55.80;;;5.88;61.27;100376.31;12251093;19;20002;-85
2023/03/11 14:19:13;;;;;;;;;;;7.50;55.80;;;5.77;61.25;100356.03;12251482;19;19917;-85
2023/03/11 14:23:18;;;;;;;;;;;7.70;55.90;;;5.84;61.07;100359.22;12248850;19;19915;-84
2023/03/11 14:27:19;;;;;;;;;;;7.60;55.90;;;5.65;61.16;100344.44;12252306;19;19914;-85
2023/03/11 14:31:44;;;;;;;;;;;7.50;55.70;;;5.93;61.24;100384.75;12248597;19;19926;-84
2023/03/11 14:35:55;;;;;;;;;;;7.50;55.70;;;5.69;61.06;100345.97;12250491;19;19919;-84
2023/03/11 14:39:56;;;;;;;;;;;7.60;55.90;;;5.69;61.13;100351.16;12251383;19;19918;-85
2023/03/11 14:43:57;;;;;;;;;;;7.60;55.70;;;5.55;61.07;100338.78;12249055;19;19939;-84
2023/03/11 14:48:03;;;;;;;;;;;7.50;55.10;;;5.87;61.01;100396.22;12248162;19;19974;-85
2023/03/11 14:52:15;;;;;;;;;;;7.60;55.40;;;5.80;61.10;100388.75;12247967;19;19923;-85
2023/03/11 14:56:20;;;;;;;;;;;7.50;55.30;;;5.80;60.98;100399.09;12248647;19;19965;-84
2023/03/11 15:00:24;;;;;;;;;;;7.80;55.40;;;5.79;61.02;100398.28;12248276;19;19931;-84
2023/03/11 15:04:36;;;;;;;;;;;7.50;55.10;;;5.75;61.01;100402.75;12250980;19;19922;-84
2023/03/11 15:08:45;;;;;;;;;;;7.50;55.20;;;5.40;60.85;100349.78;12252103;19;20355;-85
2023/03/11 15:12:48;;;;;;;;;;;7.50;55.10;;;5.76;60.95;100414.78;12249457;19;19927;-84
2023/03/11 15:16:51;;;;;;;;;;;7.50;55.30;;;5.59;60.93;100380.09;12258862;19;19932;-84
2023/03/11 15:21:23;;;;;;;;;;;7.50;55.30;;;5.89;61.16;100435.88;12257598;19;19923;-85
2023/03/11 15:25:25;;;;;;;;;;;7.50;55.20;;;5.74;60.98;100398.44;12258105;19;19923;-85
2023/03/11 15:29:28;;;;;;;;;;;7.50;55.20;;;5.90;61.00;100434.13;12264423;19;19911;-85
2023/03/11 15:33:33;;;;;;;;;;;7.50;55.30;;;5.79;60.98;100419.00;12265585;19;19911;-85
2023/03/11 15:37:34;;;;;;;;;;;7.50;55.30;;;5.89;60.78;100440.22;12266321;19;20337;-85
2023/03/11 15:41:36;;;;;;;;;;;7.50;55.20;;;5.61;60.74;100399.00;12262942;19;19922;-85
2023/03/11 15:45:37;;;;;;;;;;;7.50;55.10;;;5.80;60.88;100436.22;12265001;19;19918;-86
2023/03/11 15:49:39;;;;;;;;;;;7.50;55.10;;;5.73;60.79;100430.47;12273023;19;19911;-86
2023/03/11 15:53:40;;;;;;;;;;;7.40;55.10;;;5.70;60.65;100428.00;12269042;19;19933;-85
2023/03/11 15:57:42;;;;;;;;;;;7.40;55.10;;;5.74;60.67;100446.84;12268074;19;19919;-85
2023/03/11 16:01:45;;;;;;;;;;;7.40;54.90;;;5.69;60.56;100453.94;12261200;19;19919;-85
2023/03/11 16:05:47;;;;;;;;;;;7.40;54.90;;;5.58;60.58;100444.00;12262771;19;20268;-85
2023/03/11 16:09:49;;;;;;;;;;;7.40;54.90;;;5.72;60.59;100474.53;12268485;19;20029;-85
2023/03/11 16:13:50;;;;;;;;;;;7.30;54.80;;;5.63;60.76;100467.97;12265516;19;19918;-85
2023/03/11 16:17:52;;;;;;;;;;;7.30;54.90;;;5.68;60.58;100473.84;12265080;19;19915;-85
2023/03/11 16:21:53;;;;;;;;;;;7.30;54.90;;;5.43;60.58;100440.28;12261538;19;19926;-85
2023/03/11 16:25:58;;;;;;;;;;;7.20;54.90;;;5.62;60.56;100487.03;12258238;19;19919;-85
2023/03/11 16:30:00;;;;;;;;;;;7.30;55.00;;;5.57;60.71;100476.00;12261882;19;19922;-85
2023/03/11 16:34:01;;;;;;;;;;;7.20;55.10;;;5.53;60.52;100479.59;12263810;19;19915;-85
2023/03/11 16:38:03;;;;;;;;;;;7.20;55.10;;;5.52;60.49;100493.47;12262584;19;20340;-85
2023/03/11 16:42:05;;;;;;;;;;;7.20;54.80;;;5.47;60.38;100492.78;12261509;19;19919;-85
2023/03/11 16:46:06;;;;;;;;;;;7.20;54.70;;;5.47;60.50;100508.31;12265782;19;19923;-85
2023/03/11 16:50:09;;;;;;;;;;;7.10;54.60;;;5.32;60.52;100507.16;12262353;19;19914;-85
2023/03/11 16:54:11;;;;;;;;;;;7.10;54.70;;;5.30;60.53;100520.16;12263989;19;19910;-85
2023/03/11 16:58:14;;;;;;;;;;;7.00;54.60;;;5.30;60.47;100519.31;12256926;19;19917;-85
2023/03/11 17:02:15;;;;;;;;;;;7.00;54.70;;;5.33;60.61;100529.56;12259500;19;19928;-86
2023/03/11 17:06:17;;;;;;;;;;;7.00;54.70;;;5.27;60.35;100534.97;12259132;19;20344;-85
2023/03/11 17:10:19;;;;;;;;;;;6.90;54.70;;;5.18;60.48;100530.94;12256062;19;20263;-85
2023/03/11 17:14:21;;;;;;;;;;;6.90;54.70;;;5.20;60.34;100538.66;12257625;19;20349;-85
2023/03/11 17:18:22;;;;;;;;;;;6.90;54.80;;;5.28;60.38;100557.34;12257145;19;20321;-85
2023/03/11 17:22:24;;;;;;;;;;;6.90;54.80;;;5.13;60.18;100540.63;12254279;19;19923;-85
2023/03/11 17:26:26;;;;;;;;;;;6.80;54.80;;;5.21;60.46;100567.09;12256138;19;19915;-85
2023/03/11 17:30:28;;;;;;;;;;;6.80;54.80;;;4.97;60.15;100537.75;12254444;19;19922;-85
2023/03/11 17:34:29;;;;;;;;;;;6.80;54.70;;;5.01;60.37;100554.84;12253001;19;19919;-85
2023/03/11 17:38:31;;;;;;;;;;;6.80;54.80;;;4.92;60.19;100544.81;12252703;19;20371;-85
2023/03/11 17:42:33;;;;;;;;;;;7.00;54.90;;;4.70;60.28;100516.25;12254935;19;19952;-85
2023/03/11 17:46:38;;;;;;;;;;;6.80;54.80;;;4.92;60.13;100565.50;12256025;19;19915;-85
2023/03/11 17:50:40;;;;;;;;;;;6.60;54.80;;;5.04;60.13;100590.13;12258417;19;19918;-86
2023/03/11 17:54:42;;;;;;;;;;;6.60;54.80;;;4.74;60.20;100546.28;12254220;19;19914;-85
2023/03/11 17:58:43;;;;;;;;;;;6.60;54.90;;;4.98;60.15;100598.94;12250249;19;19915;-85
2023/03/11 18:02:45;;;;;;;;;;;6.60;54.90;;;4.65;60.27;100556.94;12247271;19;19906;-85
2023/03/11 18:06:47;;;;;;;;;;;6.50;54.90;;;4.88;60.18;100587.19;12253202;19;20291;-88
2023/03/11 18:10:53;;;;;;;;;;;6.50;54.90;;;4.94;60.02;100599.09;12251424;19;19915;-85
2023/03/11 18:14:55;;;;;;;;;;;6.50;54.90;;;4.87;60.23;100599.31;12252794;19;19910;-85
2023/03/11 18:18:56;;;;;;;;;;;6.50;54.90;;;4.80;60.02;100597.81;12250537;19;19918;-86
2023/03/11 18:22:58;;;;;;;;;;;6.40;55.00;;;4.85;60.24;100616.59;12247399;19;20333;-85
2023/03/11 18:26:59;;;;;;;;;;;6.40;54.90;;;4.73;60.09;100601.50;12249982;19;19919;-85
2023/03/11 18:31:13;;;;;;;;;;;6.30;54.90;;;4.80;60.03;100621.09;12247572;19;19919;-85
2023/03/11 18:35:16;;;;;;;;;;;6.30;55.00;;;4.68;60.23;100598.22;12251885;19;20248;-86
2023/03/11 18:39:18;;;;;;;;;;;6.30;55.10;;;4.63;60.19;100594.94;12257095;19;19910;-86
2023/03/11 18:43:20;;;;;;;;;;;6.30;55.00;;;4.72;60.14;100620.50;12256040;19;19911;-86
2023/03/11 18:47:22;;;;;;;;;;;6.30;55.00;;;4.69;60.00;100619.75;12260426;19;19930;-86
2023/03/11 18:51:28;;;;;;;;;;;6.20;55.00;;;4.46;60.11;100595.50;12267017;19;19959;-85
2023/03/11 18:55:33;;;;;;;;;;;6.20;55.00;;;4.61;59.97;100625.16;12271636;19;19926;-86
2023/03/11 18:59:34;;;;;;;;;;;6.30;55.10;;;4.32;59.98;100571.81;12268208;19;19919;-86